sensor_id;sensor_type;location;lat;lon;timestamp;pressure;altitude;pressure_sealevel;temperature;humidity
4705;BME280;2366;51.332;6.610;2023-03-03T00:01:35;102151.00;;;4.56;70.39
4705;BME280;2366;51.332;6.610;2023-03-03T00:04:01;102161.47;;;4.59;70.45
4705;BME280;2366;51.332;6.610;2023-03-03T00:06:26;102156.19;;;4.60;69.81
4705;BME280;2366;51.332;6.610;2023-03-03T00:08:54;102165.78;;;4.63;70.36
4705;BME280;2366;51.332;6.610;2023-03-03T00:11:19;102158.75;;;4.66;70.20
4705;BME280;2366;51.332;6.610;2023-03-03T00:13:50;102164.72;;;4.76;69.77
4705;BME280;2366;51.332;6.610;2023-03-03T00:18:47;102169.84;;;4.85;69.52
4705;BME280;2366;51.332;6.610;2023-03-03T00:21:39;102167.34;;;4.78;69.02
4705;BME280;2366;51.332;6.610;2023-03-03T00:24:22;102168.25;;;4.75;69.27
4705;BME280;2366;51.332;6.610;2023-03-03T00:26:53;102172.53;;;4.82;69.21
4705;BME280;2366;51.332;6.610;2023-03-03T00:29:30;102175.19;;;4.79;69.17
4705;BME280;2366;51.332;6.610;2023-03-03T00:34:42;102196.09;;;4.88;69.05
4705;BME280;2366;51.332;6.610;2023-03-03T00:37:34;102181.94;;;4.97;68.62
4705;BME280;2366;51.332;6.610;2023-03-03T00:42:55;102181.91;;;5.00;68.45
4705;BME280;2366;51.332;6.610;2023-03-03T00:48:40;102182.88;;;4.93;68.84
4705;BME280;2366;51.332;6.610;2023-03-03T00:53:43;102189.78;;;4.99;68.73
4705;BME280;2366;51.332;6.610;2023-03-03T00:56:08;102192.56;;;4.89;68.53
4705;BME280;2366;51.332;6.610;2023-03-03T00:58:34;102190.88;;;4.85;68.79
4705;BME280;2366;51.332;6.610;2023-03-03T01:00:59;102196.09;;;4.88;68.98
4705;BME280;2366;51.332;6.610;2023-03-03T01:03:25;102196.03;;;4.94;68.74
4705;BME280;2366;51.332;6.610;2023-03-03T01:05:52;102195.25;;;4.85;68.89
4705;BME280;2366;51.332;6.610;2023-03-03T01:08:18;102199.59;;;4.89;68.99
4705;BME280;2366;51.332;6.610;2023-03-03T01:10:49;102203.00;;;4.96;68.71
4705;BME280;2366;51.332;6.610;2023-03-03T01:13:15;102195.13;;;4.96;68.57
4705;BME280;2366;51.332;6.610;2023-03-03T01:15:42;102206.56;;;4.91;68.42
4705;BME280;2366;51.332;6.610;2023-03-03T01:18:09;102200.66;;;4.77;68.68
4705;BME280;2366;51.332;6.610;2023-03-03T01:20:34;102198.78;;;4.84;68.66
4705;BME280;2366;51.332;6.610;2023-03-03T01:23:00;102196.97;;;4.87;68.84
4705;BME280;2366;51.332;6.610;2023-03-03T01:25:25;102199.44;;;5.00;68.52
4705;BME280;2366;51.332;6.610;2023-03-03T01:27:51;102196.88;;;4.97;68.30
4705;BME280;2366;51.332;6.610;2023-03-03T01:30:17;102199.44;;;4.98;68.55
4705;BME280;2366;51.332;6.610;2023-03-03T01:32:42;102202.94;;;4.99;68.22
4705;BME280;2366;51.332;6.610;2023-03-03T01:35:08;102203.16;;;4.83;68.34
4705;BME280;2366;51.332;6.610;2023-03-03T01:37:34;102186.59;;;4.80;68.52
4705;BME280;2366;51.332;6.610;2023-03-03T01:40:00;102205.06;;;4.75;68.54
4705;BME280;2366;51.332;6.610;2023-03-03T01:42:25;102208.41;;;4.83;68.58
4705;BME280;2366;51.332;6.610;2023-03-03T01:45:17;102212.09;;;4.70;69.13
4705;BME280;2366;51.332;6.610;2023-03-03T01:48:05;102212.09;;;4.73;68.79
4705;BME280;2366;51.332;6.610;2023-03-03T01:50:49;102212.09;;;4.73;68.91
4705;BME280;2366;51.332;6.610;2023-03-03T01:53:19;102211.81;;;4.91;68.59
4705;BME280;2366;51.332;6.610;2023-03-03T01:55:46;102201.97;;;5.06;68.46
4705;BME280;2366;51.332;6.610;2023-03-03T01:58:18;102199.50;;;4.97;68.06
4705;BME280;2366;51.332;6.610;2023-03-03T02:00:48;102200.47;;;4.88;68.05
4705;BME280;2366;51.332;6.610;2023-03-03T02:03:15;102198.59;;;4.96;67.84
4705;BME280;2366;51.332;6.610;2023-03-03T02:05:41;102197.81;;;4.91;67.76
4705;BME280;2366;51.332;6.610;2023-03-03T02:08:10;102204.13;;;4.78;67.35
4705;BME280;2366;51.332;6.610;2023-03-03T02:10:38;102201.53;;;4.76;67.92
4705;BME280;2366;51.332;6.610;2023-03-03T02:13:04;102203.28;;;4.77;67.80
4705;BME280;2366;51.332;6.610;2023-03-03T02:15:32;102199.75;;;4.78;67.94
4705;BME280;2366;51.332;6.610;2023-03-03T02:18:05;102193.84;;;4.62;68.62
4705;BME280;2366;51.332;6.610;2023-03-03T02:23:22;102197.34;;;4.61;68.58
4705;BME280;2366;51.332;6.610;2023-03-03T02:28:26;102195.66;;;4.56;68.58
4705;BME280;2366;51.332;6.610;2023-03-03T02:30:57;102192.06;;;4.61;68.45
4705;BME280;2366;51.332;6.610;2023-03-03T02:33:23;102204.28;;;4.65;68.47
4705;BME280;2366;51.332;6.610;2023-03-03T02:35:49;102194.78;;;4.55;68.89
4705;BME280;2366;51.332;6.610;2023-03-03T02:38:28;102191.25;;;4.58;68.62
4705;BME280;2366;51.332;6.610;2023-03-03T02:41:02;102197.41;;;4.55;68.45
4705;BME280;2366;51.332;6.610;2023-03-03T02:46:05;102200.59;;;4.80;68.33
4705;BME280;2366;51.332;6.610;2023-03-03T02:48:31;102200.66;;;4.74;68.31
4705;BME280;2366;51.332;6.610;2023-03-03T02:50:56;102204.94;;;4.81;68.27
4705;BME280;2366;51.332;6.610;2023-03-03T02:53:21;102205.78;;;4.83;67.92
4705;BME280;2366;51.332;6.610;2023-03-03T02:55:47;102215.44;;;4.81;68.02
4705;BME280;2366;51.332;6.610;2023-03-03T02:58:12;102218.13;;;4.80;68.10
4705;BME280;2366;51.332;6.610;2023-03-03T03:00:37;102207.63;;;4.80;68.01
4705;BME280;2366;51.332;6.610;2023-03-03T03:03:03;102209.41;;;4.76;67.93
4705;BME280;2366;51.332;6.610;2023-03-03T03:05:28;102228.78;;;4.69;67.80
4705;BME280;2366;51.332;6.610;2023-03-03T03:07:53;102214.72;;;4.70;68.05
4705;BME280;2366;51.332;6.610;2023-03-03T03:10:19;102209.47;;;4.73;67.86
4705;BME280;2366;51.332;6.610;2023-03-03T03:12:44;102229.66;;;4.68;68.10
4705;BME280;2366;51.332;6.610;2023-03-03T03:15:10;102226.09;;;4.70;67.87
4705;BME280;2366;51.332;6.610;2023-03-03T03:17:38;102228.78;;;4.67;67.77
4705;BME280;2366;51.332;6.610;2023-03-03T03:20:04;102220.81;;;4.75;67.91
4705;BME280;2366;51.332;6.610;2023-03-03T03:22:29;102215.66;;;4.66;67.95
4705;BME280;2366;51.332;6.610;2023-03-03T03:24:55;102219.06;;;4.72;68.35
4705;BME280;2366;51.332;6.610;2023-03-03T03:27:20;102220.75;;;4.78;67.81
4705;BME280;2366;51.332;6.610;2023-03-03T03:29:47;102224.97;;;4.90;67.90
4705;BME280;2366;51.332;6.610;2023-03-03T03:32:13;102229.56;;;4.74;67.96
4705;BME280;2366;51.332;6.610;2023-03-03T03:34:38;102241.09;;;4.64;68.15
4705;BME280;2366;51.332;6.610;2023-03-03T03:37:03;102229.69;;;4.65;67.95
4705;BME280;2366;51.332;6.610;2023-03-03T03:39:29;102232.22;;;4.72;68.03
4705;BME280;2366;51.332;6.610;2023-03-03T03:41:54;102236.66;;;4.67;67.68
4705;BME280;2366;51.332;6.610;2023-03-03T03:44:21;102233.16;;;4.68;68.15
4705;BME280;2366;51.332;6.610;2023-03-03T03:46:48;102231.41;;;4.69;67.96
4705;BME280;2366;51.332;6.610;2023-03-03T03:49:13;102237.53;;;4.69;67.58
4705;BME280;2366;51.332;6.610;2023-03-03T03:51:38;102234.84;;;4.72;68.03
4705;BME280;2366;51.332;6.610;2023-03-03T03:54:06;102234.13;;;4.61;67.80
4705;BME280;2366;51.332;6.610;2023-03-03T03:56:31;102237.53;;;4.69;68.24
4705;BME280;2366;51.332;6.610;2023-03-03T03:58:57;102230.63;;;4.61;67.63
4705;BME280;2366;51.332;6.610;2023-03-03T04:01:22;102233.25;;;4.61;68.37
4705;BME280;2366;51.332;6.610;2023-03-03T04:03:48;102222.66;;;4.67;68.34
4705;BME280;2366;51.332;6.610;2023-03-03T04:06:13;102222.63;;;4.70;67.67
4705;BME280;2366;51.332;6.610;2023-03-03T04:08:39;102229.69;;;4.65;67.83
4705;BME280;2366;51.332;6.610;2023-03-03T04:11:04;102228.00;;;4.62;67.91
4705;BME280;2366;51.332;6.610;2023-03-03T04:13:30;102233.31;;;4.55;68.12
4705;BME280;2366;51.332;6.610;2023-03-03T04:15:59;102246.41;;;4.59;68.11
4705;BME280;2366;51.332;6.610;2023-03-03T04:18:25;102236.84;;;4.53;68.43
4705;BME280;2366;51.332;6.610;2023-03-03T04:20:50;102251.84;;;4.44;68.89
4705;BME280;2366;51.332;6.610;2023-03-03T04:23:17;102239.53;;;4.49;68.60
4705;BME280;2366;51.332;6.610;2023-03-03T04:25:45;102241.19;;;4.56;68.64
4705;BME280;2366;51.332;6.610;2023-03-03T04:28:11;102248.13;;;4.62;68.57
4705;BME280;2366;51.332;6.610;2023-03-03T04:30:36;102243.81;;;4.56;68.44
4705;BME280;2366;51.332;6.610;2023-03-03T04:33:02;102245.53;;;4.59;68.39
4705;BME280;2366;51.332;6.610;2023-03-03T04:35:27;102235.81;;;4.64;68.22
4705;BME280;2366;51.332;6.610;2023-03-03T04:37:53;102236.69;;;4.66;68.35
4705;BME280;2366;51.332;6.610;2023-03-03T04:40:18;102243.81;;;4.58;68.65
4705;BME280;2366;51.332;6.610;2023-03-03T04:42:44;102243.63;;;4.71;68.34
4705;BME280;2366;51.332;6.610;2023-03-03T04:45:09;102255.84;;;4.77;68.05
4705;BME280;2366;51.332;6.610;2023-03-03T04:47:35;102244.59;;;4.64;67.68
4705;BME280;2366;51.332;6.610;2023-03-03T04:50:00;102242.97;;;4.54;68.04
4705;BME280;2366;51.332;6.610;2023-03-03T04:52:26;102249.00;;;4.61;68.14
4705;BME280;2366;51.332;6.610;2023-03-03T04:54:52;102252.50;;;4.64;68.13
4705;BME280;2366;51.332;6.610;2023-03-03T04:57:17;102252.44;;;4.69;68.23
4705;BME280;2366;51.332;6.610;2023-03-03T04:59:42;102250.66;;;4.68;68.04
4705;BME280;2366;51.332;6.610;2023-03-03T05:02:08;102255.91;;;4.71;68.03
4705;BME280;2366;51.332;6.610;2023-03-03T05:04:34;102264.53;;;4.81;67.68
4705;BME280;2366;51.332;6.610;2023-03-03T05:06:59;102258.34;;;4.86;67.74
4705;BME280;2366;51.332;6.610;2023-03-03T05:09:25;102252.16;;;4.90;67.56
4705;BME280;2366;51.332;6.610;2023-03-03T05:11:50;102253.88;;;4.91;67.29
4705;BME280;2366;51.332;6.610;2023-03-03T05:14:16;102264.44;;;4.88;66.98
4705;BME280;2366;51.332;6.610;2023-03-03T05:16:41;102261.16;;;4.71;67.41
4705;BME280;2366;51.332;6.610;2023-03-03T05:19:07;102267.34;;;4.67;66.99
4705;BME280;2366;51.332;6.610;2023-03-03T05:21:32;102263.03;;;4.60;66.92
4705;BME280;2366;51.332;6.610;2023-03-03T05:23:58;102257.78;;;4.60;67.35
4705;BME280;2366;51.332;6.610;2023-03-03T05:26:23;102263.03;;;4.60;67.54
4705;BME280;2366;51.332;6.610;2023-03-03T05:28:48;102254.19;;;4.68;67.20
4705;BME280;2366;51.332;6.610;2023-03-03T05:31:14;102250.66;;;4.71;67.08
4705;BME280;2366;51.332;6.610;2023-03-03T05:33:39;102254.19;;;4.67;67.46
4705;BME280;2366;51.332;6.610;2023-03-03T05:36:05;102265.44;;;4.78;67.58
4705;BME280;2366;51.332;6.610;2023-03-03T05:38:30;102262.75;;;4.81;67.36
4705;BME280;2366;51.332;6.610;2023-03-03T05:40:56;102265.50;;;4.75;67.22
4705;BME280;2366;51.332;6.610;2023-03-03T05:43:21;102263.81;;;4.68;67.46
4705;BME280;2366;51.332;6.610;2023-03-03T05:45:46;102266.44;;;4.68;67.16
4705;BME280;2366;51.332;6.610;2023-03-03T05:48:12;102264.72;;;4.64;66.96
4705;BME280;2366;51.332;6.610;2023-03-03T05:50:38;102270.09;;;4.55;67.37
4705;BME280;2366;51.332;6.610;2023-03-03T05:53:04;102261.41;;;4.49;67.72
4705;BME280;2366;51.332;6.610;2023-03-03T05:55:29;102262.28;;;4.50;67.45
4705;BME280;2366;51.332;6.610;2023-03-03T05:57:55;102267.59;;;4.47;67.76
4705;BME280;2366;51.332;6.610;2023-03-03T06:00:20;102270.09;;;4.56;67.41
4705;BME280;2366;51.332;6.610;2023-03-03T06:02:46;102266.72;;;4.43;68.01
4705;BME280;2366;51.332;6.610;2023-03-03T06:05:11;102272.00;;;4.43;67.71
4705;BME280;2366;51.332;6.610;2023-03-03T06:07:37;102269.47;;;4.34;68.60
4705;BME280;2366;51.332;6.610;2023-03-03T06:10:03;102277.28;;;4.40;68.15
4705;BME280;2366;51.332;6.610;2023-03-03T06:12:28;102289.53;;;4.41;67.79
4705;BME280;2366;51.332;6.610;2023-03-03T06:14:54;102286.00;;;4.42;67.89
4705;BME280;2366;51.332;6.610;2023-03-03T06:17:19;102288.53;;;4.51;67.93
4705;BME280;2366;51.332;6.610;2023-03-03T06:19:45;102295.50;;;4.54;67.62
4705;BME280;2366;51.332;6.610;2023-03-03T06:22:11;102294.59;;;4.57;67.48
4705;BME280;2366;51.332;6.610;2023-03-03T06:24:37;102287.50;;;4.65;67.30
4705;BME280;2366;51.332;6.610;2023-03-03T06:27:02;102301.63;;;4.56;67.38
4705;BME280;2366;51.332;6.610;2023-03-03T06:29:28;102312.03;;;4.64;67.02
4705;BME280;2366;51.332;6.610;2023-03-03T06:31:53;102314.63;;;4.67;67.20
4705;BME280;2366;51.332;6.610;2023-03-03T06:34:19;102313.75;;;4.68;67.55
4705;BME280;2366;51.332;6.610;2023-03-03T06:36:44;102311.03;;;4.76;67.02
4705;BME280;2366;51.332;6.610;2023-03-03T06:39:10;102325.97;;;4.72;67.25
4705;BME280;2366;51.332;6.610;2023-03-03T06:41:36;102321.56;;;4.74;67.60
4705;BME280;2366;51.332;6.610;2023-03-03T06:44:01;102329.44;;;4.74;66.90
4705;BME280;2366;51.332;6.610;2023-03-03T06:46:27;102325.94;;;4.75;67.16
4705;BME280;2366;51.332;6.610;2023-03-03T06:48:53;102328.59;;;4.70;66.73
4705;BME280;2366;51.332;6.610;2023-03-03T06:51:26;102343.47;;;4.73;66.90
4705;BME280;2366;51.332;6.610;2023-03-03T06:53:56;102334.75;;;4.68;67.22
4705;BME280;2366;51.332;6.610;2023-03-03T06:56:26;102343.31;;;4.85;66.78
4705;BME280;2366;51.332;6.610;2023-03-03T06:58:55;102343.13;;;5.01;66.11
4705;BME280;2366;51.332;6.610;2023-03-03T07:01:22;102336.88;;;5.09;65.81
4705;BME280;2366;51.332;6.610;2023-03-03T07:03:47;102337.84;;;5.04;65.74
4705;BME280;2366;51.332;6.610;2023-03-03T07:06:22;102327.34;;;5.01;65.56
4705;BME280;2366;51.332;6.610;2023-03-03T07:08:49;102329.78;;;5.18;65.37
4705;BME280;2366;51.332;6.610;2023-03-03T07:11:17;102335.03;;;5.19;64.96
4705;BME280;2366;51.332;6.610;2023-03-03T07:13:46;102342.00;;;5.20;64.92
4705;BME280;2366;51.332;6.610;2023-03-03T07:16:12;102346.47;;;5.15;64.52
4705;BME280;2366;51.332;6.610;2023-03-03T07:18:58;102348.31;;;5.07;64.68
4705;BME280;2366;51.332;6.610;2023-03-03T07:21:36;102348.25;;;5.13;64.78
4705;BME280;2366;51.332;6.610;2023-03-03T07:24:28;102344.75;;;5.14;64.60
4705;BME280;2366;51.332;6.610;2023-03-03T07:27:42;102347.25;;;5.23;64.87
4705;BME280;2366;51.332;6.610;2023-03-03T07:29:46;102351.44;;;5.37;64.28
4705;BME280;2366;51.332;6.610;2023-03-03T07:32:24;102350.44;;;5.47;64.29
4705;BME280;2366;51.332;6.610;2023-03-03T07:34:51;102345.03;;;5.56;64.19
4705;BME280;2366;51.332;6.610;2023-03-03T07:37:30;102354.84;;;5.45;63.53
4705;BME280;2366;51.332;6.610;2023-03-03T07:39:59;102356.41;;;5.58;63.41
4705;BME280;2366;51.332;6.610;2023-03-03T07:42:27;102357.44;;;5.46;63.22
4705;BME280;2366;51.332;6.610;2023-03-03T07:44:59;102359.13;;;5.52;63.41
4705;BME280;2366;51.332;6.610;2023-03-03T07:47:35;102366.09;;;5.54;63.39
4705;BME280;2366;51.332;6.610;2023-03-03T07:50:13;102376.56;;;5.59;63.17
4705;BME280;2366;51.332;6.610;2023-03-03T07:52:42;102375.69;;;5.59;63.13
4705;BME280;2366;51.332;6.610;2023-03-03T07:55:40;102376.75;;;5.47;62.86
4705;BME280;2366;51.332;6.610;2023-03-03T08:03:09;102386.50;;;5.39;63.09
4705;BME280;2366;51.332;6.610;2023-03-03T08:05:41;102390.25;;;5.19;63.54
4705;BME280;2366;51.332;6.610;2023-03-03T08:08:27;102401.22;;;5.52;63.31
4705;BME280;2366;51.332;6.610;2023-03-03T08:10:58;102394.09;;;5.62;62.78
4705;BME280;2366;51.332;6.610;2023-03-03T08:16:17;102399.34;;;5.62;61.86
4705;BME280;2366;51.332;6.610;2023-03-03T08:18:46;102396.03;;;5.46;62.40
4705;BME280;2366;51.332;6.610;2023-03-03T08:21:14;102400.44;;;5.45;62.44
4705;BME280;2366;51.332;6.610;2023-03-03T08:23:40;102414.50;;;5.43;62.72
4705;BME280;2366;51.332;6.610;2023-03-03T08:26:06;102410.91;;;5.48;62.74
4705;BME280;2366;51.332;6.610;2023-03-03T08:28:31;102402.28;;;5.39;62.68
4705;BME280;2366;51.332;6.610;2023-03-03T08:30:57;102409.19;;;5.49;62.68
4705;BME280;2366;51.332;6.610;2023-03-03T08:33:22;102419.78;;;5.43;62.55
4705;BME280;2366;51.332;6.610;2023-03-03T08:35:48;102410.19;;;5.39;62.66
4705;BME280;2366;51.332;6.610;2023-03-03T08:38:15;102414.47;;;5.46;63.05
4705;BME280;2366;51.332;6.610;2023-03-03T08:40:41;102418.59;;;5.65;62.97
4705;BME280;2366;51.332;6.610;2023-03-03T08:43:07;102422.63;;;5.89;62.57
4705;BME280;2366;51.332;6.610;2023-03-03T08:45:33;102422.63;;;5.89;61.79
4705;BME280;2366;51.332;6.610;2023-03-03T08:47:59;102424.34;;;5.92;61.43
4705;BME280;2366;51.332;6.610;2023-03-03T08:50:26;102431.31;;;5.99;61.54
4705;BME280;2366;51.332;6.610;2023-03-03T08:52:51;102426.91;;;6.01;61.26
4705;BME280;2366;51.332;6.610;2023-03-03T08:55:17;102433.09;;;5.95;60.88
4705;BME280;2366;51.332;6.610;2023-03-03T08:57:43;102428.72;;;5.93;61.83
4705;BME280;2366;51.332;6.610;2023-03-03T09:00:12;102445.41;;;5.95;61.35
4705;BME280;2366;51.332;6.610;2023-03-03T09:02:39;102425.22;;;5.92;61.62
4705;BME280;2366;51.332;6.610;2023-03-03T09:05:05;102433.09;;;5.94;61.37
4705;BME280;2366;51.332;6.610;2023-03-03T09:07:31;102438.31;;;6.00;61.00
4705;BME280;2366;51.332;6.610;2023-03-03T09:09:56;102447.88;;;6.06;60.68
4705;BME280;2366;51.332;6.610;2023-03-03T09:12:40;102436.59;;;5.96;60.41
4705;BME280;2366;51.332;6.610;2023-03-03T09:17:41;102442.78;;;5.95;60.79
4705;BME280;2366;51.332;6.610;2023-03-03T09:20:27;102439.34;;;5.88;60.82
4705;BME280;2366;51.332;6.610;2023-03-03T09:22:54;102436.53;;;6.01;61.07
4705;BME280;2366;51.332;6.610;2023-03-03T09:25:32;102447.63;;;6.23;60.71
4705;BME280;2366;51.332;6.610;2023-03-03T09:27:59;102451.00;;;6.31;60.54
4705;BME280;2366;51.332;6.610;2023-03-03T09:30:34;102447.31;;;6.41;59.95
4705;BME280;2366;51.332;6.610;2023-03-03T09:33:01;102449.94;;;6.43;59.98
4705;BME280;2366;51.332;6.610;2023-03-03T09:35:40;102446.44;;;6.42;59.53
4705;BME280;2366;51.332;6.610;2023-03-03T09:41:05;102452.84;;;6.24;60.57
4705;BME280;2366;51.332;6.610;2023-03-03T09:49:47;102460.47;;;6.44;59.90
4705;BME280;2366;51.332;6.610;2023-03-03T10:18:57;102483.88;;;6.61;59.28
4705;BME280;2366;51.332;6.610;2023-03-03T10:21:47;102479.06;;;6.86;58.08
4705;BME280;2366;51.332;6.610;2023-03-03T10:24:35;102480.44;;;6.57;58.64
4705;BME280;2366;51.332;6.610;2023-03-03T10:27:40;102481.88;;;6.77;58.02
4705;BME280;2366;51.332;6.610;2023-03-03T10:30:20;102475.03;;;6.65;58.66
4705;BME280;2366;51.332;6.610;2023-03-03T10:35:40;102476.31;;;6.92;58.00
4705;BME280;2366;51.332;6.610;2023-03-03T10:44:06;102481.28;;;7.09;57.41
4705;BME280;2366;51.332;6.610;2023-03-03T10:46:51;102474.38;;;7.02;57.41
4705;BME280;2366;51.332;6.610;2023-03-03T10:49:46;102476.75;;;7.16;57.61
4705;BME280;2366;51.332;6.610;2023-03-03T11:06:24;102481.78;;;7.28;57.05
4705;BME280;2366;51.332;6.610;2023-03-03T11:09:03;102484.69;;;7.14;56.97
4705;BME280;2366;51.332;6.610;2023-03-03T11:12:27;102482.03;;;7.16;57.33
4705;BME280;2366;51.332;6.610;2023-03-03T11:15:04;102483.75;;;7.18;56.67
4705;BME280;2366;51.332;6.610;2023-03-03T11:25:26;102484.25;;;7.79;55.56
4705;BME280;2366;51.332;6.610;2023-03-03T11:28:01;102479.44;;;7.58;55.48
4705;BME280;2366;51.332;6.610;2023-03-03T11:38:43;102463.06;;;7.42;55.99
4705;BME280;2366;51.332;6.610;2023-03-03T11:41:30;102465.19;;;7.22;56.72
4705;BME280;2366;51.332;6.610;2023-03-03T11:46:37;102463.72;;;7.08;57.02
4705;BME280;2366;51.332;6.610;2023-03-03T11:49:15;102465.38;;;7.12;57.18
4705;BME280;2366;51.332;6.610;2023-03-03T11:54:30;102458.94;;;7.27;57.19
4705;BME280;2366;51.332;6.610;2023-03-03T11:57:18;102462.00;;;7.51;56.86
4705;BME280;2366;51.332;6.610;2023-03-03T12:00:01;102461.81;;;7.58;56.37
4705;BME280;2366;51.332;6.610;2023-03-03T12:05:54;102459.03;;;8.05;55.25
4705;BME280;2366;51.332;6.610;2023-03-03T12:11:20;102447.91;;;7.91;54.73
4705;BME280;2366;51.332;6.610;2023-03-03T12:14:21;102447.19;;;7.84;55.21
4705;BME280;2366;51.332;6.610;2023-03-03T12:17:12;102450.81;;;7.78;55.74
4705;BME280;2366;51.332;6.610;2023-03-03T12:25:39;102445.69;;;8.49;53.98
4705;BME280;2366;51.332;6.610;2023-03-03T12:39:27;102436.13;;;8.43;53.44
4705;BME280;2366;51.332;6.610;2023-03-03T12:44:53;102440.91;;;8.26;52.55
4705;BME280;2366;51.332;6.610;2023-03-03T12:50:40;102434.66;;;8.30;54.22
4705;BME280;2366;51.332;6.610;2023-03-03T12:53:41;102435.78;;;8.19;53.27
4705;BME280;2366;51.332;6.610;2023-03-03T12:56:12;102421.09;;;8.45;54.82
4705;BME280;2366;51.332;6.610;2023-03-03T12:59:00;102432.78;;;8.71;52.95
4705;BME280;2366;51.332;6.610;2023-03-03T13:07:25;102437.19;;;8.34;52.77
4705;BME280;2366;51.332;6.610;2023-03-03T13:12:48;102430.94;;;8.37;53.65
4705;BME280;2366;51.332;6.610;2023-03-03T13:18:50;102441.84;;;8.60;52.82
4705;BME280;2366;51.332;6.610;2023-03-03T13:21:41;102427.91;;;8.88;52.32
4705;BME280;2366;51.332;6.610;2023-03-03T13:24:38;102425.75;;;8.70;52.17
4705;BME280;2366;51.332;6.610;2023-03-03T13:27:12;102419.78;;;8.26;52.73
4705;BME280;2366;51.332;6.610;2023-03-03T13:29:49;102425.59;;;8.41;52.91
4705;BME280;2366;51.332;6.610;2023-03-03T13:32:23;102423.91;;;8.37;52.18
4705;BME280;2366;51.332;6.610;2023-03-03T13:35:00;102418.97;;;8.59;52.62
4705;BME280;2366;51.332;6.610;2023-03-03T13:37:47;102418.41;;;8.81;52.45
4705;BME280;2366;51.332;6.610;2023-03-03T13:40:16;102423.19;;;8.99;52.51
4705;BME280;2366;51.332;6.610;2023-03-03T13:42:52;102422.66;;;9.18;51.61
4705;BME280;2366;51.332;6.610;2023-03-03T13:45:27;102415.25;;;8.99;52.00
4705;BME280;2366;51.332;6.610;2023-03-03T13:57:23;102410.50;;;9.11;51.13
4705;BME280;2366;51.332;6.610;2023-03-03T14:02:52;102404.00;;;8.91;51.85
4705;BME280;2366;51.332;6.610;2023-03-03T14:05:40;102399.47;;;8.63;52.53
4705;BME280;2366;51.332;6.610;2023-03-03T14:11:09;102400.03;;;8.75;52.88
4705;BME280;2366;51.332;6.610;2023-03-03T14:18:56;102393.19;;;8.68;52.40
4705;BME280;2366;51.332;6.610;2023-03-03T14:24:14;102389.13;;;8.54;53.06
4705;BME280;2366;51.332;6.610;2023-03-03T14:26:47;102384.59;;;8.59;52.80
4705;BME280;2366;51.332;6.610;2023-03-03T14:31:56;102377.44;;;8.63;52.89
4705;BME280;2366;51.332;6.610;2023-03-03T14:36:51;102367.22;;;8.82;52.05
4705;BME280;2366;51.332;6.610;2023-03-03T14:39:38;102364.16;;;8.66;52.76
4705;BME280;2366;51.332;6.610;2023-03-03T14:44:54;102360.91;;;8.88;52.36
4705;BME280;2366;51.332;6.610;2023-03-03T14:47:22;102355.41;;;8.62;53.45
4705;BME280;2366;51.332;6.610;2023-03-03T14:49:48;102361.88;;;8.52;53.54
4705;BME280;2366;51.332;6.610;2023-03-03T14:54:42;102353.88;;;8.54;53.38
4705;BME280;2366;51.332;6.610;2023-03-03T15:02:48;102348.81;;;8.79;53.08
4705;BME280;2366;51.332;6.610;2023-03-03T15:07:52;102348.44;;;8.91;52.86
4705;BME280;2366;51.332;6.610;2023-03-03T15:10:30;102347.19;;;9.04;52.99
4705;BME280;2366;51.332;6.610;2023-03-03T15:12:56;102342.38;;;8.88;53.76
4705;BME280;2366;51.332;6.610;2023-03-03T15:15:25;102337.69;;;8.97;52.82
4705;BME280;2366;51.332;6.610;2023-03-03T15:28:23;102326.31;;;9.23;52.57
4705;BME280;2366;51.332;6.610;2023-03-03T15:36:52;102310.38;;;9.55;52.76
4705;BME280;2366;51.332;6.610;2023-03-03T15:39:47;102320.31;;;9.48;51.79
4705;BME280;2366;51.332;6.610;2023-03-03T15:47:50;102316.81;;;9.46;52.07
4705;BME280;2366;51.332;6.610;2023-03-03T15:50:25;102313.22;;;9.49;51.76
4705;BME280;2366;51.332;6.610;2023-03-03T16:03:31;102304.97;;;9.58;51.75
4705;BME280;2366;51.332;6.610;2023-03-03T16:11:17;102297.97;;;9.57;51.66
4705;BME280;2366;51.332;6.610;2023-03-03T16:16:42;102300.53;;;9.30;52.95
4705;BME280;2366;51.332;6.610;2023-03-03T16:22:26;102296.16;;;9.57;52.49
4705;BME280;2366;51.332;6.610;2023-03-03T16:27:39;102311.91;;;9.34;52.95
4705;BME280;2366;51.332;6.610;2023-03-03T16:30:26;102307.59;;;9.31;53.25
4705;BME280;2366;51.332;6.610;2023-03-03T16:33:10;102309.97;;;9.39;53.21
4705;BME280;2366;51.332;6.610;2023-03-03T16:35:46;102314.69;;;9.29;53.14
4705;BME280;2366;51.332;6.610;2023-03-03T16:38:20;102315.66;;;9.27;53.58
4705;BME280;2366;51.332;6.610;2023-03-03T16:40:57;102309.78;;;9.17;53.79
4705;BME280;2366;51.332;6.610;2023-03-03T16:46:31;102315.16;;;9.14;54.04
4705;BME280;2366;51.332;6.610;2023-03-03T16:49:40;102317.63;;;8.90;54.98
4705;BME280;2366;51.332;6.610;2023-03-03T16:52:14;102313.28;;;8.88;55.64
4705;BME280;2366;51.332;6.610;2023-03-03T16:54:49;102325.75;;;8.82;55.86
4705;BME280;2366;51.332;6.610;2023-03-03T17:00:08;102328.63;;;8.75;55.84
4705;BME280;2366;51.332;6.610;2023-03-03T17:07:51;102337.72;;;8.64;55.99
4705;BME280;2366;51.332;6.610;2023-03-03T17:10:41;102335.59;;;8.46;56.56
4705;BME280;2366;51.332;6.610;2023-03-03T17:15:51;102341.44;;;8.23;56.97
4705;BME280;2366;51.332;6.610;2023-03-03T17:18:28;102342.66;;;8.11;57.16
4705;BME280;2366;51.332;6.610;2023-03-03T17:21:00;102342.94;;;7.99;57.25
4705;BME280;2366;51.332;6.610;2023-03-03T17:23:46;102347.53;;;7.91;57.50
4705;BME280;2366;51.332;6.610;2023-03-03T17:26:50;102345.00;;;7.86;58.14
4705;BME280;2366;51.332;6.610;2023-03-03T17:29:38;102344.19;;;7.84;58.48
4705;BME280;2366;51.332;6.610;2023-03-03T17:32:34;102345.19;;;7.78;58.46
4705;BME280;2366;51.332;6.610;2023-03-03T17:43:14;102360.16;;;7.39;59.07
4705;BME280;2366;51.332;6.610;2023-03-03T17:45:42;102361.31;;;7.27;59.44
4705;BME280;2366;51.332;6.610;2023-03-03T17:48:14;102372.97;;;7.17;59.39
4705;BME280;2366;51.332;6.610;2023-03-03T18:00:21;102377.19;;;6.82;60.48
4705;BME280;2366;51.332;6.610;2023-03-03T18:03:07;102384.31;;;6.77;60.63
4705;BME280;2366;51.332;6.610;2023-03-03T18:08:39;102380.22;;;6.61;60.88
4705;BME280;2366;51.332;6.610;2023-03-03T18:19:50;102380.59;;;6.39;61.58
4705;BME280;2366;51.332;6.610;2023-03-03T18:22:33;102379.84;;;6.31;61.60
4705;BME280;2366;51.332;6.610;2023-03-03T18:25:14;102378.28;;;6.21;62.34
4705;BME280;2366;51.332;6.610;2023-03-03T18:27:41;102378.28;;;6.21;62.31
4705;BME280;2366;51.332;6.610;2023-03-03T18:30:21;102375.59;;;6.24;62.98